National Weather Service Raw Text Product

Displaying AFOS PIL: TAFMCW Received: 2018-10-12 01:58 UTC


179 
FTUS43 KDMX 120158 AAA
TAFMCW
TAF AMD
KMCW 120158Z 1202/1224 31008KT P6SM OVC035
      TEMPO 1202/1205 OVC030
     FM120800 31006KT P6SM SCT045
     FM121000 31004KT P6SM BKN100
     FM121800 28007KT P6SM BKN070=